sensor_id;sensor_type;location;lat;lon;timestamp;temperature;humidity
3330;DHT22;1677;49.576;10.990;2023-05-21T00:00:11;18.80;99.90
3330;DHT22;1677;49.576;10.990;2023-05-21T00:02:37;18.70;99.90
3330;DHT22;1677;49.576;10.990;2023-05-21T00:05:03;18.70;99.90
3330;DHT22;1677;49.576;10.990;2023-05-21T00:07:29;18.70;99.90
3330;DHT22;1677;49.576;10.990;2023-05-21T00:09:57;18.70;99.90
3330;DHT22;1677;49.576;10.990;2023-05-21T00:12:22;18.60;99.90
3330;DHT22;1677;49.576;10.990;2023-05-21T00:14:48;18.60;99.90
3330;DHT22;1677;49.576;10.990;2023-05-21T00:17:14;18.60;99.90
3330;DHT22;1677;49.576;10.990;2023-05-21T00:19:40;18.50;99.90
3330;DHT22;1677;49.576;10.990;2023-05-21T00:22:05;18.40;99.90
3330;DHT22;1677;49.576;10.990;2023-05-21T00:24:31;18.30;99.90
3330;DHT22;1677;49.576;10.990;2023-05-21T00:26:57;18.50;99.90
3330;DHT22;1677;49.576;10.990;2023-05-21T00:29:22;18.50;99.90
3330;DHT22;1677;49.576;10.990;2023-05-21T00:31:48;18.60;99.90
3330;DHT22;1677;49.576;10.990;2023-05-21T00:34:17;18.50;99.90
3330;DHT22;1677;49.576;10.990;2023-05-21T00:36:44;18.50;99.90
3330;DHT22;1677;49.576;10.990;2023-05-21T00:39:11;18.60;99.90
3330;DHT22;1677;49.576;10.990;2023-05-21T00:41:36;18.50;99.90
3330;DHT22;1677;49.576;10.990;2023-05-21T00:44:05;18.40;99.90
3330;DHT22;1677;49.576;10.990;2023-05-21T00:46:31;18.40;99.90
3330;DHT22;1677;49.576;10.990;2023-05-21T00:48:57;18.40;99.90
3330;DHT22;1677;49.576;10.990;2023-05-21T00:51:23;18.40;99.90
3330;DHT22;1677;49.576;10.990;2023-05-21T00:53:51;18.40;99.90
3330;DHT22;1677;49.576;10.990;2023-05-21T00:56:19;18.50;99.90
3330;DHT22;1677;49.576;10.990;2023-05-21T00:58:46;18.30;99.90
3330;DHT22;1677;49.576;10.990;2023-05-21T01:01:12;18.30;99.90
3330;DHT22;1677;49.576;10.990;2023-05-21T01:03:38;18.30;99.90
3330;DHT22;1677;49.576;10.990;2023-05-21T01:06:05;18.30;99.90
3330;DHT22;1677;49.576;10.990;2023-05-21T01:08:31;18.30;99.90
3330;DHT22;1677;49.576;10.990;2023-05-21T01:10:58;18.30;99.90
3330;DHT22;1677;49.576;10.990;2023-05-21T01:13:24;18.30;99.90
3330;DHT22;1677;49.576;10.990;2023-05-21T01:15:52;18.20;99.90
3330;DHT22;1677;49.576;10.990;2023-05-21T01:18:18;18.20;99.90
3330;DHT22;1677;49.576;10.990;2023-05-21T01:20:45;18.10;99.90
3330;DHT22;1677;49.576;10.990;2023-05-21T01:23:16;18.10;99.90
3330;DHT22;1677;49.576;10.990;2023-05-21T01:25:41;18.10;99.90
3330;DHT22;1677;49.576;10.990;2023-05-21T01:28:07;18.00;99.90
3330;DHT22;1677;49.576;10.990;2023-05-21T01:30:33;17.90;99.90
3330;DHT22;1677;49.576;10.990;2023-05-21T01:33:05;17.80;99.90
3330;DHT22;1677;49.576;10.990;2023-05-21T01:38:16;17.60;99.90
3330;DHT22;1677;49.576;10.990;2023-05-21T01:40:46;17.60;99.90
3330;DHT22;1677;49.576;10.990;2023-05-21T01:43:14;17.60;99.90
3330;DHT22;1677;49.576;10.990;2023-05-21T01:45:41;17.60;99.90
3330;DHT22;1677;49.576;10.990;2023-05-21T01:48:08;17.60;99.90
3330;DHT22;1677;49.576;10.990;2023-05-21T01:50:36;17.50;99.90
3330;DHT22;1677;49.576;10.990;2023-05-21T01:53:02;17.40;99.90
3330;DHT22;1677;49.576;10.990;2023-05-21T01:55:30;17.40;99.90
3330;DHT22;1677;49.576;10.990;2023-05-21T01:57:57;17.40;99.90
3330;DHT22;1677;49.576;10.990;2023-05-21T02:00:25;17.40;99.90
3330;DHT22;1677;49.576;10.990;2023-05-21T02:02:55;17.40;99.90
3330;DHT22;1677;49.576;10.990;2023-05-21T02:05:20;17.40;99.90
3330;DHT22;1677;49.576;10.990;2023-05-21T02:07:46;17.40;99.90
3330;DHT22;1677;49.576;10.990;2023-05-21T02:10:12;17.40;99.90
3330;DHT22;1677;49.576;10.990;2023-05-21T02:12:38;17.20;99.90
3330;DHT22;1677;49.576;10.990;2023-05-21T02:15:04;17.20;99.90
3330;DHT22;1677;49.576;10.990;2023-05-21T02:17:30;17.20;99.90
3330;DHT22;1677;49.576;10.990;2023-05-21T02:20:02;17.20;99.90
3330;DHT22;1677;49.576;10.990;2023-05-21T02:22:38;17.30;99.90
3330;DHT22;1677;49.576;10.990;2023-05-21T02:25:07;17.30;99.90
3330;DHT22;1677;49.576;10.990;2023-05-21T02:27:37;17.50;99.90
3330;DHT22;1677;49.576;10.990;2023-05-21T02:30:06;17.30;99.90
3330;DHT22;1677;49.576;10.990;2023-05-21T02:32:32;17.30;99.90
3330;DHT22;1677;49.576;10.990;2023-05-21T02:34:58;17.20;99.90
3330;DHT22;1677;49.576;10.990;2023-05-21T02:37:24;17.10;99.90
3330;DHT22;1677;49.576;10.990;2023-05-21T02:39:52;17.00;99.90
3330;DHT22;1677;49.576;10.990;2023-05-21T02:42:18;17.10;99.90
3330;DHT22;1677;49.576;10.990;2023-05-21T02:44:43;17.10;99.90
3330;DHT22;1677;49.576;10.990;2023-05-21T02:47:09;17.00;99.90
3330;DHT22;1677;49.576;10.990;2023-05-21T02:49:34;17.00;99.90
3330;DHT22;1677;49.576;10.990;2023-05-21T02:52:00;16.90;99.90
3330;DHT22;1677;49.576;10.990;2023-05-21T02:54:26;16.90;99.90
3330;DHT22;1677;49.576;10.990;2023-05-21T02:56:51;16.90;99.90
3330;DHT22;1677;49.576;10.990;2023-05-21T02:59:17;16.90;99.90
3330;DHT22;1677;49.576;10.990;2023-05-21T03:01:42;16.80;99.90
3330;DHT22;1677;49.576;10.990;2023-05-21T03:04:09;16.80;99.90
3330;DHT22;1677;49.576;10.990;2023-05-21T03:06:35;16.90;99.90
3330;DHT22;1677;49.576;10.990;2023-05-21T03:09:02;17.10;99.90
3330;DHT22;1677;49.576;10.990;2023-05-21T03:11:27;17.00;99.90
3330;DHT22;1677;49.576;10.990;2023-05-21T03:13:53;16.90;99.90
3330;DHT22;1677;49.576;10.990;2023-05-21T03:16:18;16.90;99.90
3330;DHT22;1677;49.576;10.990;2023-05-21T03:18:44;16.90;99.90
3330;DHT22;1677;49.576;10.990;2023-05-21T03:21:09;16.80;99.90
3330;DHT22;1677;49.576;10.990;2023-05-21T03:23:38;16.80;99.90
3330;DHT22;1677;49.576;10.990;2023-05-21T03:26:04;16.80;99.90
3330;DHT22;1677;49.576;10.990;2023-05-21T03:28:30;16.80;99.90
3330;DHT22;1677;49.576;10.990;2023-05-21T03:30:56;16.70;99.90
3330;DHT22;1677;49.576;10.990;2023-05-21T03:33:21;16.70;99.90
3330;DHT22;1677;49.576;10.990;2023-05-21T03:35:47;16.70;99.90
3330;DHT22;1677;49.576;10.990;2023-05-21T03:38:13;16.60;99.90
3330;DHT22;1677;49.576;10.990;2023-05-21T03:40:38;16.60;99.90
3330;DHT22;1677;49.576;10.990;2023-05-21T03:43:04;16.70;99.90
3330;DHT22;1677;49.576;10.990;2023-05-21T03:45:29;16.70;99.90
3330;DHT22;1677;49.576;10.990;2023-05-21T03:47:55;16.80;99.90
3330;DHT22;1677;49.576;10.990;2023-05-21T03:50:21;16.80;99.90
3330;DHT22;1677;49.576;10.990;2023-05-21T03:52:46;16.80;99.90
3330;DHT22;1677;49.576;10.990;2023-05-21T03:55:12;16.80;99.90
3330;DHT22;1677;49.576;10.990;2023-05-21T03:57:37;16.70;99.90
3330;DHT22;1677;49.576;10.990;2023-05-21T04:00:03;16.60;99.90
3330;DHT22;1677;49.576;10.990;2023-05-21T04:02:30;16.60;99.90
3330;DHT22;1677;49.576;10.990;2023-05-21T04:04:56;16.70;99.90
3330;DHT22;1677;49.576;10.990;2023-05-21T04:07:21;16.70;99.90
3330;DHT22;1677;49.576;10.990;2023-05-21T04:09:48;16.80;99.90
3330;DHT22;1677;49.576;10.990;2023-05-21T04:12:13;16.70;99.90
3330;DHT22;1677;49.576;10.990;2023-05-21T04:14:39;16.60;99.90
3330;DHT22;1677;49.576;10.990;2023-05-21T04:17:05;16.60;99.90
3330;DHT22;1677;49.576;10.990;2023-05-21T04:19:31;16.80;99.90
3330;DHT22;1677;49.576;10.990;2023-05-21T04:21:57;16.80;99.90
3330;DHT22;1677;49.576;10.990;2023-05-21T04:24:23;16.80;99.90
3330;DHT22;1677;49.576;10.990;2023-05-21T04:26:48;16.80;99.90
3330;DHT22;1677;49.576;10.990;2023-05-21T04:29:15;16.80;99.90
3330;DHT22;1677;49.576;10.990;2023-05-21T04:31:48;16.80;99.90
3330;DHT22;1677;49.576;10.990;2023-05-21T04:34:14;16.90;99.90
3330;DHT22;1677;49.576;10.990;2023-05-21T04:36:43;16.90;99.90
3330;DHT22;1677;49.576;10.990;2023-05-21T04:39:10;16.90;99.90
3330;DHT22;1677;49.576;10.990;2023-05-21T04:41:36;16.90;99.90
3330;DHT22;1677;49.576;10.990;2023-05-21T04:44:04;16.90;99.90
3330;DHT22;1677;49.576;10.990;2023-05-21T04:46:29;17.00;99.90
3330;DHT22;1677;49.576;10.990;2023-05-21T04:48:56;17.10;99.90
3330;DHT22;1677;49.576;10.990;2023-05-21T04:51:22;17.10;99.90
3330;DHT22;1677;49.576;10.990;2023-05-21T04:53:51;17.20;99.90
3330;DHT22;1677;49.576;10.990;2023-05-21T04:56:18;17.20;99.90
3330;DHT22;1677;49.576;10.990;2023-05-21T04:58:44;17.40;99.90
3330;DHT22;1677;49.576;10.990;2023-05-21T05:01:12;17.50;99.90
3330;DHT22;1677;49.576;10.990;2023-05-21T05:03:37;17.50;99.90
3330;DHT22;1677;49.576;10.990;2023-05-21T05:06:03;17.60;99.90
3330;DHT22;1677;49.576;10.990;2023-05-21T05:08:29;17.70;99.90
3330;DHT22;1677;49.576;10.990;2023-05-21T05:10:55;17.90;99.90
3330;DHT22;1677;49.576;10.990;2023-05-21T05:13:20;17.90;99.90
3330;DHT22;1677;49.576;10.990;2023-05-21T05:15:46;18.00;99.90
3330;DHT22;1677;49.576;10.990;2023-05-21T05:18:12;18.00;99.90
3330;DHT22;1677;49.576;10.990;2023-05-21T05:20:37;18.10;99.90
3330;DHT22;1677;49.576;10.990;2023-05-21T05:23:03;18.30;99.90
3330;DHT22;1677;49.576;10.990;2023-05-21T05:25:28;18.30;99.90
3330;DHT22;1677;49.576;10.990;2023-05-21T05:27:54;18.30;99.90
3330;DHT22;1677;49.576;10.990;2023-05-21T05:30:20;18.40;99.90
3330;DHT22;1677;49.576;10.990;2023-05-21T05:32:45;18.50;99.90
3330;DHT22;1677;49.576;10.990;2023-05-21T05:35:11;18.70;99.90
3330;DHT22;1677;49.576;10.990;2023-05-21T05:37:37;18.80;99.90
3330;DHT22;1677;49.576;10.990;2023-05-21T05:40:03;18.80;99.90
3330;DHT22;1677;49.576;10.990;2023-05-21T05:42:29;19.00;99.90
3330;DHT22;1677;49.576;10.990;2023-05-21T05:44:55;19.10;99.90
3330;DHT22;1677;49.576;10.990;2023-05-21T05:47:21;19.20;99.90
3330;DHT22;1677;49.576;10.990;2023-05-21T05:49:46;19.30;99.90
3330;DHT22;1677;49.576;10.990;2023-05-21T05:52:12;19.50;99.90
3330;DHT22;1677;49.576;10.990;2023-05-21T05:54:38;19.60;99.90
3330;DHT22;1677;49.576;10.990;2023-05-21T05:57:04;19.60;99.90
3330;DHT22;1677;49.576;10.990;2023-05-21T05:59:29;19.80;99.90
3330;DHT22;1677;49.576;10.990;2023-05-21T06:01:55;20.00;99.90
3330;DHT22;1677;49.576;10.990;2023-05-21T06:04:20;20.00;99.90
3330;DHT22;1677;49.576;10.990;2023-05-21T06:06:46;20.00;99.90
3330;DHT22;1677;49.576;10.990;2023-05-21T06:09:12;20.00;99.90
3330;DHT22;1677;49.576;10.990;2023-05-21T06:11:38;20.10;99.90
3330;DHT22;1677;49.576;10.990;2023-05-21T06:14:03;20.30;99.90
3330;DHT22;1677;49.576;10.990;2023-05-21T06:16:29;20.40;99.90
3330;DHT22;1677;49.576;10.990;2023-05-21T06:18:58;20.40;99.90
3330;DHT22;1677;49.576;10.990;2023-05-21T06:21:24;20.50;99.90
3330;DHT22;1677;49.576;10.990;2023-05-21T06:23:49;20.60;99.90
3330;DHT22;1677;49.576;10.990;2023-05-21T06:26:15;20.70;99.90
3330;DHT22;1677;49.576;10.990;2023-05-21T06:28:43;20.70;99.90
3330;DHT22;1677;49.576;10.990;2023-05-21T06:31:08;20.90;99.90
3330;DHT22;1677;49.576;10.990;2023-05-21T06:33:34;21.20;99.90
3330;DHT22;1677;49.576;10.990;2023-05-21T06:35:59;21.30;99.90
3330;DHT22;1677;49.576;10.990;2023-05-21T06:38:25;21.50;99.90
3330;DHT22;1677;49.576;10.990;2023-05-21T06:40:51;21.70;99.90
3330;DHT22;1677;49.576;10.990;2023-05-21T06:43:16;21.60;99.90
3330;DHT22;1677;49.576;10.990;2023-05-21T06:45:42;21.50;99.90
3330;DHT22;1677;49.576;10.990;2023-05-21T06:48:07;21.50;99.90
3330;DHT22;1677;49.576;10.990;2023-05-21T06:50:33;21.60;99.90
3330;DHT22;1677;49.576;10.990;2023-05-21T06:52:59;21.80;99.90
3330;DHT22;1677;49.576;10.990;2023-05-21T06:55:25;21.80;99.90
3330;DHT22;1677;49.576;10.990;2023-05-21T06:57:51;21.90;99.90
3330;DHT22;1677;49.576;10.990;2023-05-21T07:00:16;22.00;99.90
3330;DHT22;1677;49.576;10.990;2023-05-21T07:02:42;22.20;99.90
3330;DHT22;1677;49.576;10.990;2023-05-21T07:05:08;22.30;99.90
3330;DHT22;1677;49.576;10.990;2023-05-21T07:07:34;22.30;99.90
3330;DHT22;1677;49.576;10.990;2023-05-21T07:09:59;22.30;99.90
3330;DHT22;1677;49.576;10.990;2023-05-21T07:12:25;22.10;99.90
3330;DHT22;1677;49.576;10.990;2023-05-21T07:14:51;21.60;99.90
3330;DHT22;1677;49.576;10.990;2023-05-21T07:17:16;21.70;99.90
3330;DHT22;1677;49.576;10.990;2023-05-21T07:19:42;21.90;99.90
3330;DHT22;1677;49.576;10.990;2023-05-21T07:22:07;21.90;99.90
3330;DHT22;1677;49.576;10.990;2023-05-21T07:24:33;21.80;99.90
3330;DHT22;1677;49.576;10.990;2023-05-21T07:26:58;22.00;99.90
3330;DHT22;1677;49.576;10.990;2023-05-21T07:29:24;22.30;99.90
3330;DHT22;1677;49.576;10.990;2023-05-21T07:31:50;22.40;99.90
3330;DHT22;1677;49.576;10.990;2023-05-21T07:34:15;22.70;99.90
3330;DHT22;1677;49.576;10.990;2023-05-21T07:36:41;23.00;99.90
3330;DHT22;1677;49.576;10.990;2023-05-21T07:39:06;23.00;99.90
3330;DHT22;1677;49.576;10.990;2023-05-21T07:41:32;23.10;99.90
3330;DHT22;1677;49.576;10.990;2023-05-21T07:43:57;23.20;99.90
3330;DHT22;1677;49.576;10.990;2023-05-21T07:46:23;23.30;99.90
3330;DHT22;1677;49.576;10.990;2023-05-21T07:48:48;23.60;99.90
3330;DHT22;1677;49.576;10.990;2023-05-21T07:51:14;24.00;99.90
3330;DHT22;1677;49.576;10.990;2023-05-21T07:53:40;24.10;98.50
3330;DHT22;1677;49.576;10.990;2023-05-21T07:56:06;24.00;98.50
3330;DHT22;1677;49.576;10.990;2023-05-21T07:58:32;24.40;99.90
3330;DHT22;1677;49.576;10.990;2023-05-21T08:00:59;24.50;96.90
3330;DHT22;1677;49.576;10.990;2023-05-21T08:03:25;24.30;97.00
3330;DHT22;1677;49.576;10.990;2023-05-21T08:05:52;24.40;97.80
3330;DHT22;1677;49.576;10.990;2023-05-21T08:08:18;24.70;96.60
3330;DHT22;1677;49.576;10.990;2023-05-21T08:10:44;25.30;97.90
3330;DHT22;1677;49.576;10.990;2023-05-21T08:13:11;25.70;96.80
3330;DHT22;1677;49.576;10.990;2023-05-21T08:15:36;26.00;96.30
3330;DHT22;1677;49.576;10.990;2023-05-21T08:18:02;26.20;95.30
3330;DHT22;1677;49.576;10.990;2023-05-21T08:20:28;25.80;93.90
3330;DHT22;1677;49.576;10.990;2023-05-21T08:22:55;25.80;94.80
3330;DHT22;1677;49.576;10.990;2023-05-21T08:25:21;25.50;93.60
3330;DHT22;1677;49.576;10.990;2023-05-21T08:27:47;25.40;94.60
3330;DHT22;1677;49.576;10.990;2023-05-21T08:30:12;25.40;94.00
3330;DHT22;1677;49.576;10.990;2023-05-21T08:32:39;25.50;95.30
3330;DHT22;1677;49.576;10.990;2023-05-21T08:35:04;25.70;94.10
3330;DHT22;1677;49.576;10.990;2023-05-21T08:37:31;25.80;94.20
3330;DHT22;1677;49.576;10.990;2023-05-21T08:39:57;25.80;93.00
3330;DHT22;1677;49.576;10.990;2023-05-21T08:42:32;25.70;93.90
3330;DHT22;1677;49.576;10.990;2023-05-21T08:45:03;25.90;93.30
3330;DHT22;1677;49.576;10.990;2023-05-21T08:47:32;26.20;93.50
3330;DHT22;1677;49.576;10.990;2023-05-21T08:49:59;25.90;92.00
3330;DHT22;1677;49.576;10.990;2023-05-21T08:52:25;25.90;92.70
3330;DHT22;1677;49.576;10.990;2023-05-21T08:54:52;26.00;94.40
3330;DHT22;1677;49.576;10.990;2023-05-21T08:57:19;26.20;93.50
3330;DHT22;1677;49.576;10.990;2023-05-21T08:59:47;26.20;93.40
3330;DHT22;1677;49.576;10.990;2023-05-21T09:02:14;26.30;93.20
3330;DHT22;1677;49.576;10.990;2023-05-21T09:04:44;26.40;93.10
3330;DHT22;1677;49.576;10.990;2023-05-21T09:07:14;26.40;92.30
3330;DHT22;1677;49.576;10.990;2023-05-21T09:09:48;26.60;92.50
3330;DHT22;1677;49.576;10.990;2023-05-21T09:12:15;26.60;92.20
3330;DHT22;1677;49.576;10.990;2023-05-21T09:14:41;26.70;93.10
3330;DHT22;1677;49.576;10.990;2023-05-21T09:17:07;26.80;91.90
3330;DHT22;1677;49.576;10.990;2023-05-21T09:19:33;27.00;92.10
3330;DHT22;1677;49.576;10.990;2023-05-21T09:22:02;27.20;90.90
3330;DHT22;1677;49.576;10.990;2023-05-21T09:24:33;27.20;90.90
3330;DHT22;1677;49.576;10.990;2023-05-21T09:26:58;27.10;91.00
3330;DHT22;1677;49.576;10.990;2023-05-21T09:29:25;27.30;91.90
3330;DHT22;1677;49.576;10.990;2023-05-21T09:31:51;27.70;90.00
3330;DHT22;1677;49.576;10.990;2023-05-21T09:34:19;27.90;89.70
3330;DHT22;1677;49.576;10.990;2023-05-21T09:36:44;28.00;88.20
3330;DHT22;1677;49.576;10.990;2023-05-21T09:39:10;28.00;87.30
3330;DHT22;1677;49.576;10.990;2023-05-21T09:41:41;28.30;87.60
3330;DHT22;1677;49.576;10.990;2023-05-21T09:44:07;28.30;85.80
3330;DHT22;1677;49.576;10.990;2023-05-21T09:46:41;28.40;78.90
3330;DHT22;1677;49.576;10.990;2023-05-21T09:49:20;27.60;80.00
3330;DHT22;1677;49.576;10.990;2023-05-21T09:51:46;27.80;78.70
3330;DHT22;1677;49.576;10.990;2023-05-21T09:54:12;27.80;76.20
3330;DHT22;1677;49.576;10.990;2023-05-21T09:56:38;27.50;77.40
3330;DHT22;1677;49.576;10.990;2023-05-21T09:59:04;27.20;79.10
3330;DHT22;1677;49.576;10.990;2023-05-21T10:01:30;27.30;79.30
3330;DHT22;1677;49.576;10.990;2023-05-21T10:03:59;27.50;80.50
3330;DHT22;1677;49.576;10.990;2023-05-21T10:06:27;27.90;79.30
3330;DHT22;1677;49.576;10.990;2023-05-21T10:08:54;28.00;81.80
3330;DHT22;1677;49.576;10.990;2023-05-21T10:11:25;27.90;81.00
3330;DHT22;1677;49.576;10.990;2023-05-21T10:14:04;27.90;83.20
3330;DHT22;1677;49.576;10.990;2023-05-21T10:16:33;27.90;82.60
3330;DHT22;1677;49.576;10.990;2023-05-21T10:18:59;27.80;83.10
3330;DHT22;1677;49.576;10.990;2023-05-21T10:21:28;28.00;83.80
3330;DHT22;1677;49.576;10.990;2023-05-21T10:23:56;28.00;87.00
3330;DHT22;1677;49.576;10.990;2023-05-21T10:26:22;27.90;81.10
3330;DHT22;1677;49.576;10.990;2023-05-21T10:28:50;27.40;81.10
3330;DHT22;1677;49.576;10.990;2023-05-21T10:31:17;27.50;85.50
3330;DHT22;1677;49.576;10.990;2023-05-21T10:33:42;27.80;85.50
3330;DHT22;1677;49.576;10.990;2023-05-21T10:36:08;28.00;81.40
3330;DHT22;1677;49.576;10.990;2023-05-21T10:38:35;28.10;81.80
3330;DHT22;1677;49.576;10.990;2023-05-21T10:41:02;28.20;85.50
3330;DHT22;1677;49.576;10.990;2023-05-21T10:44:39;28.00;85.40
3330;DHT22;1677;49.576;10.990;2023-05-21T10:49:49;28.30;85.60
3330;DHT22;1677;49.576;10.990;2023-05-21T10:52:32;28.30;85.80
3330;DHT22;1677;49.576;10.990;2023-05-21T10:55:08;28.60;86.30
3330;DHT22;1677;49.576;10.990;2023-05-21T11:00:16;29.40;82.80
3330;DHT22;1677;49.576;10.990;2023-05-21T11:02:45;29.70;84.40
3330;DHT22;1677;49.576;10.990;2023-05-21T11:05:11;29.50;82.20
3330;DHT22;1677;49.576;10.990;2023-05-21T11:07:55;29.60;77.20
3330;DHT22;1677;49.576;10.990;2023-05-21T11:10:37;30.10;80.30
3330;DHT22;1677;49.576;10.990;2023-05-21T11:13:14;30.20;77.40
3330;DHT22;1677;49.576;10.990;2023-05-21T11:21:11;29.30;76.00
3330;DHT22;1677;49.576;10.990;2023-05-21T11:23:59;29.20;77.10
3330;DHT22;1677;49.576;10.990;2023-05-21T11:26:31;29.30;79.40
3330;DHT22;1677;49.576;10.990;2023-05-21T11:29:14;29.00;74.30
3330;DHT22;1677;49.576;10.990;2023-05-21T11:31:49;28.80;74.70
3330;DHT22;1677;49.576;10.990;2023-05-21T11:34:23;28.90;75.30
3330;DHT22;1677;49.576;10.990;2023-05-21T11:39:48;28.80;74.40
3330;DHT22;1677;49.576;10.990;2023-05-21T11:42:27;28.40;72.50
3330;DHT22;1677;49.576;10.990;2023-05-21T11:44:55;28.10;72.00
3330;DHT22;1677;49.576;10.990;2023-05-21T11:47:23;28.00;71.10
3330;DHT22;1677;49.576;10.990;2023-05-21T11:49:50;28.00;71.50
3330;DHT22;1677;49.576;10.990;2023-05-21T11:52:16;28.10;71.00
3330;DHT22;1677;49.576;10.990;2023-05-21T11:54:43;28.50;73.30
3330;DHT22;1677;49.576;10.990;2023-05-21T11:57:11;28.80;70.70
3330;DHT22;1677;49.576;10.990;2023-05-21T11:59:39;28.50;67.70
3330;DHT22;1677;49.576;10.990;2023-05-21T12:02:05;28.60;68.90
3330;DHT22;1677;49.576;10.990;2023-05-21T12:04:32;28.80;67.90
3330;DHT22;1677;49.576;10.990;2023-05-21T12:07:05;28.50;64.80
3330;DHT22;1677;49.576;10.990;2023-05-21T12:09:41;28.40;64.20
3330;DHT22;1677;49.576;10.990;2023-05-21T12:12:11;28.60;65.90
3330;DHT22;1677;49.576;10.990;2023-05-21T12:14:38;28.60;65.10
3330;DHT22;1677;49.576;10.990;2023-05-21T12:17:05;28.60;63.20
3330;DHT22;1677;49.576;10.990;2023-05-21T12:19:38;28.80;62.60
3330;DHT22;1677;49.576;10.990;2023-05-21T12:22:05;28.50;58.50
3330;DHT22;1677;49.576;10.990;2023-05-21T12:26:58;28.10;57.70
3330;DHT22;1677;49.576;10.990;2023-05-21T12:29:26;28.30;57.70
3330;DHT22;1677;49.576;10.990;2023-05-21T12:31:52;28.30;57.00
3330;DHT22;1677;49.576;10.990;2023-05-21T12:34:42;28.60;55.90
3330;DHT22;1677;49.576;10.990;2023-05-21T12:37:14;28.60;55.40
3330;DHT22;1677;49.576;10.990;2023-05-21T12:39:44;28.70;53.80
3330;DHT22;1677;49.576;10.990;2023-05-21T12:42:10;28.80;54.00
3330;DHT22;1677;49.576;10.990;2023-05-21T12:44:38;29.20;53.90
3330;DHT22;1677;49.576;10.990;2023-05-21T12:47:05;29.40;57.20
3330;DHT22;1677;49.576;10.990;2023-05-21T12:49:44;29.80;53.30
3330;DHT22;1677;49.576;10.990;2023-05-21T12:52:13;30.20;56.00
3330;DHT22;1677;49.576;10.990;2023-05-21T12:54:41;30.40;58.00
3330;DHT22;1677;49.576;10.990;2023-05-21T12:57:13;30.20;56.60
3330;DHT22;1677;49.576;10.990;2023-05-21T12:59:59;30.20;54.40
3330;DHT22;1677;49.576;10.990;2023-05-21T13:04:59;30.10;54.50
3330;DHT22;1677;49.576;10.990;2023-05-21T13:07:25;29.70;53.20
3330;DHT22;1677;49.576;10.990;2023-05-21T13:09:52;29.40;52.10
3330;DHT22;1677;49.576;10.990;2023-05-21T13:12:22;28.70;52.80
3330;DHT22;1677;49.576;10.990;2023-05-21T13:14:53;28.40;52.80
3330;DHT22;1677;49.576;10.990;2023-05-21T13:17:20;28.30;53.00
3330;DHT22;1677;49.576;10.990;2023-05-21T13:22:41;27.90;50.90
3330;DHT22;1677;49.576;10.990;2023-05-21T13:25:10;28.30;51.30
3330;DHT22;1677;49.576;10.990;2023-05-21T13:27:37;28.60;50.30
3330;DHT22;1677;49.576;10.990;2023-05-21T13:30:04;28.30;50.20
3330;DHT22;1677;49.576;10.990;2023-05-21T13:32:30;28.10;51.50
3330;DHT22;1677;49.576;10.990;2023-05-21T13:34:56;27.90;52.40
3330;DHT22;1677;49.576;10.990;2023-05-21T13:37:21;28.10;52.30
3330;DHT22;1677;49.576;10.990;2023-05-21T13:39:47;28.50;51.50
3330;DHT22;1677;49.576;10.990;2023-05-21T13:42:12;28.80;51.90
3330;DHT22;1677;49.576;10.990;2023-05-21T13:44:38;29.00;49.90
3330;DHT22;1677;49.576;10.990;2023-05-21T13:47:05;29.00;50.00
3330;DHT22;1677;49.576;10.990;2023-05-21T13:49:31;28.90;49.40
3330;DHT22;1677;49.576;10.990;2023-05-21T13:51:57;28.80;49.50
3330;DHT22;1677;49.576;10.990;2023-05-21T13:54:25;29.00;50.10
3330;DHT22;1677;49.576;10.990;2023-05-21T13:56:51;28.90;49.70
3330;DHT22;1677;49.576;10.990;2023-05-21T13:59:16;28.80;49.70
3330;DHT22;1677;49.576;10.990;2023-05-21T14:01:42;28.90;48.60
3330;DHT22;1677;49.576;10.990;2023-05-21T14:04:09;28.80;49.10
3330;DHT22;1677;49.576;10.990;2023-05-21T14:06:35;29.00;48.60
3330;DHT22;1677;49.576;10.990;2023-05-21T14:09:02;29.10;48.40
3330;DHT22;1677;49.576;10.990;2023-05-21T14:11:27;29.10;48.70
3330;DHT22;1677;49.576;10.990;2023-05-21T14:13:53;28.90;48.30
3330;DHT22;1677;49.576;10.990;2023-05-21T14:16:19;28.70;47.70
3330;DHT22;1677;49.576;10.990;2023-05-21T14:18:47;28.50;48.50
3330;DHT22;1677;49.576;10.990;2023-05-21T14:21:12;28.30;47.40
3330;DHT22;1677;49.576;10.990;2023-05-21T14:23:38;28.20;46.90
3330;DHT22;1677;49.576;10.990;2023-05-21T14:26:03;28.20;46.80
3330;DHT22;1677;49.576;10.990;2023-05-21T14:28:29;28.20;47.00
3330;DHT22;1677;49.576;10.990;2023-05-21T14:30:55;28.20;47.30
3330;DHT22;1677;49.576;10.990;2023-05-21T14:33:20;28.30;45.70
3330;DHT22;1677;49.576;10.990;2023-05-21T14:35:46;28.10;44.60
3330;DHT22;1677;49.576;10.990;2023-05-21T14:38:12;28.00;44.90
3330;DHT22;1677;49.576;10.990;2023-05-21T14:40:38;27.90;44.20
3330;DHT22;1677;49.576;10.990;2023-05-21T14:43:03;27.90;45.50
3330;DHT22;1677;49.576;10.990;2023-05-21T14:45:30;27.90;45.30
3330;DHT22;1677;49.576;10.990;2023-05-21T14:47:58;27.80;45.30
3330;DHT22;1677;49.576;10.990;2023-05-21T14:50:24;27.80;46.40
3330;DHT22;1677;49.576;10.990;2023-05-21T14:52:49;27.80;45.40
3330;DHT22;1677;49.576;10.990;2023-05-21T14:55:15;27.90;46.40
3330;DHT22;1677;49.576;10.990;2023-05-21T14:57:43;27.90;48.00
3330;DHT22;1677;49.576;10.990;2023-05-21T15:00:10;28.00;47.30
3330;DHT22;1677;49.576;10.990;2023-05-21T15:02:36;27.90;45.80
3330;DHT22;1677;49.576;10.990;2023-05-21T15:05:01;27.80;46.60
3330;DHT22;1677;49.576;10.990;2023-05-21T15:07:27;27.90;47.10
3330;DHT22;1677;49.576;10.990;2023-05-21T15:09:52;27.90;47.30
3330;DHT22;1677;49.576;10.990;2023-05-21T15:12:18;27.70;45.80
3330;DHT22;1677;49.576;10.990;2023-05-21T15:14:44;27.60;46.10
3330;DHT22;1677;49.576;10.990;2023-05-21T15:17:09;27.60;45.10
3330;DHT22;1677;49.576;10.990;2023-05-21T15:19:35;27.60;46.20
3330;DHT22;1677;49.576;10.990;2023-05-21T15:22:00;27.50;46.40
3330;DHT22;1677;49.576;10.990;2023-05-21T15:24:27;27.30;46.70
3330;DHT22;1677;49.576;10.990;2023-05-21T15:26:52;27.30;47.30
3330;DHT22;1677;49.576;10.990;2023-05-21T15:29:18;27.20;47.40
3330;DHT22;1677;49.576;10.990;2023-05-21T15:31:43;27.10;47.20
3330;DHT22;1677;49.576;10.990;2023-05-21T15:34:09;27.00;46.90
3330;DHT22;1677;49.576;10.990;2023-05-21T15:36:34;26.90;46.20
3330;DHT22;1677;49.576;10.990;2023-05-21T15:39:01;26.80;44.70
3330;DHT22;1677;49.576;10.990;2023-05-21T15:41:28;26.80;45.80
3330;DHT22;1677;49.576;10.990;2023-05-21T15:43:53;26.80;46.10
3330;DHT22;1677;49.576;10.990;2023-05-21T15:46:19;26.80;46.50
3330;DHT22;1677;49.576;10.990;2023-05-21T15:48:45;26.80;45.50
3330;DHT22;1677;49.576;10.990;2023-05-21T15:51:10;26.80;45.70
3330;DHT22;1677;49.576;10.990;2023-05-21T15:53:36;26.80;46.70
3330;DHT22;1677;49.576;10.990;2023-05-21T15:56:01;26.70;47.00
3330;DHT22;1677;49.576;10.990;2023-05-21T15:58:27;26.60;45.30
3330;DHT22;1677;49.576;10.990;2023-05-21T16:00:53;26.50;45.60
3330;DHT22;1677;49.576;10.990;2023-05-21T16:03:18;26.50;46.30
3330;DHT22;1677;49.576;10.990;2023-05-21T16:05:44;26.50;47.30
3330;DHT22;1677;49.576;10.990;2023-05-21T16:08:09;26.40;47.90